createdAt,value
2022-12-26T00:00:36.375Z,419.49
2022-12-26T00:03:45.612Z,450.27
2022-12-26T00:06:52.183Z,486.21
2022-12-26T00:09:59.191Z,419.16
2022-12-26T00:13:39.789Z,403.04
2022-12-26T00:16:32.642Z,416.47
2022-12-26T00:19:41.167Z,453.75
2022-12-26T00:22:47.555Z,426.84
2022-12-26T00:25:53.385Z,411.36
2022-12-26T00:29:00.732Z,424.95
2022-12-26T00:32:06.861Z,425.24
2022-12-26T00:35:15.995Z,422.22
2022-12-26T00:38:21.783Z,439.38
2022-12-26T00:41:28.744Z,417.53
2022-12-26T00:44:34.425Z,429.01
2022-12-26T00:47:40.912Z,425.87
2022-12-26T00:50:49.297Z,441.61
2022-12-26T00:53:55.843Z,482.07
2022-12-26T00:57:01.471Z,470.62
2022-12-26T01:00:10.979Z,475.59
2022-12-26T01:03:17.042Z,466.91
2022-12-26T01:06:27.973Z,452.96
2022-12-26T01:09:33.668Z,452.57
2022-12-26T01:12:40.592Z,460.60
2022-12-26T01:15:52.862Z,452.75
2022-12-26T01:18:59.314Z,435.65
2022-12-26T01:22:08.117Z,449.97
2022-12-26T01:25:15.870Z,439.57
2022-12-26T01:28:21.615Z,444.65
2022-12-26T01:31:29.209Z,516.62
2022-12-26T01:34:35.844Z,499.47
2022-12-26T01:37:45.015Z,495.27
2022-12-26T01:41:12.301Z,511.53
2022-12-26T01:44:59.652Z,468.45
2022-12-26T01:48:15.957Z,478.29
2022-12-26T01:51:27.034Z,493.50
2022-12-26T01:54:42.993Z,486.19
2022-12-26T01:57:59.619Z,507.03
2022-12-26T02:01:11.060Z,672.52
2022-12-26T02:04:37.861Z,612.96
2022-12-26T02:07:49.387Z,493.63
2022-12-26T02:11:11.114Z,463.47
2022-12-26T02:14:18.038Z,463.58
2022-12-26T02:17:24.616Z,451.30
2022-12-26T02:20:43.919Z,465.49
2022-12-26T02:24:29.977Z,461.42
2022-12-26T02:28:30.756Z,465.71
2022-12-26T02:31:56.504Z,451.96
2022-12-26T02:35:24.715Z,448.09
2022-12-26T02:38:50.518Z,446.11
2022-12-26T02:42:17.910Z,426.16
2022-12-26T02:45:49.801Z,428.57
2022-12-26T02:49:16.312Z,444.02
2022-12-26T02:52:51.632Z,451.39
2022-12-26T02:56:25.841Z,422.18
2022-12-26T03:00:01.763Z,419.69
2022-12-26T03:03:29.981Z,455.82
2022-12-26T03:06:56.972Z,543.40
2022-12-26T03:10:24.904Z,652.15
2022-12-26T03:13:39.693Z,521.47
2022-12-26T03:17:09.593Z,490.57
2022-12-26T03:20:21.326Z,512.13
2022-12-26T03:23:34.954Z,495.92
2022-12-26T03:26:53.007Z,500.46
2022-12-26T03:30:14.936Z,502.64
2022-12-26T03:33:35.542Z,517.06
2022-12-26T03:37:04.625Z,739.87
2022-12-26T03:40:58.823Z,1275.62
2022-12-26T03:44:45.087Z,675.84
2022-12-26T03:48:21.151Z,520.48
2022-12-26T03:51:54.316Z,470.69
2022-12-26T03:55:25.165Z,438.23
2022-12-26T03:58:58.741Z,344.58
2022-12-26T04:02:25.692Z,319.29
2022-12-26T04:05:48.601Z,295.20
2022-12-26T04:09:17.302Z,295.05
2022-12-26T04:12:45.148Z,386.65
2022-12-26T04:16:15.301Z,446.67
2022-12-26T04:19:58.915Z,439.92
2022-12-26T04:23:29.108Z,504.91
2022-12-26T04:26:55.981Z,549.22
2022-12-26T04:30:14.229Z,456.08
2022-12-26T04:33:50.333Z,461.27
2022-12-26T04:37:17.617Z,464.48
2022-12-26T04:40:47.236Z,456.40
2022-12-26T04:44:12.093Z,387.32
2022-12-26T04:47:18.920Z,346.10
2022-12-26T04:50:24.502Z,283.77
2022-12-26T04:53:31.240Z,217.76
2022-12-26T04:56:37.580Z,207.66
2022-12-26T04:59:44.156Z,189.13
2022-12-26T05:03:02.317Z,185.96
2022-12-26T05:06:25.623Z,176.00
2022-12-26T05:09:37.561Z,153.49
2022-12-26T05:12:44.208Z,156.48
2022-12-26T05:16:02.340Z,148.09
2022-12-26T05:19:24.420Z,129.59
2022-12-26T05:22:50.171Z,135.40
2022-12-26T05:26:08.982Z,145.05
2022-12-26T05:29:14.665Z,166.41
2022-12-26T05:32:33.539Z,188.52
2022-12-26T05:35:40.103Z,191.42
2022-12-26T05:38:50.160Z,183.00
2022-12-26T05:41:55.733Z,172.22
2022-12-26T05:45:02.146Z,160.40
2022-12-26T05:48:08.577Z,161.97
2022-12-26T05:51:15.198Z,142.77
2022-12-26T05:54:23.443Z,121.93
2022-12-26T05:57:29.956Z,122.44
2022-12-26T06:00:35.684Z,135.37
2022-12-26T06:03:44.364Z,137.76
2022-12-26T06:06:50.546Z,139.93
2022-12-26T06:09:59.595Z,140.61
2022-12-26T06:13:05.332Z,135.68
2022-12-26T06:16:14.979Z,133.44
2022-12-26T06:19:20.858Z,133.80
2022-12-26T06:22:27.402Z,135.61
2022-12-26T06:25:35.628Z,132.28
2022-12-26T06:28:44.142Z,136.14
2022-12-26T06:31:50.518Z,141.05
2022-12-26T06:34:56.987Z,141.99
2022-12-26T06:38:02.636Z,139.67
2022-12-26T06:41:19.389Z,141.68
2022-12-26T06:44:25.271Z,135.64
2022-12-26T06:47:32.526Z,129.87
2022-12-26T06:50:39.945Z,127.68
2022-12-26T06:53:46.782Z,128.39
2022-12-26T06:56:54.960Z,132.65
2022-12-26T07:00:01.587Z,132.57
2022-12-26T07:03:07.559Z,144.68
2022-12-26T07:06:23.644Z,141.40
2022-12-26T07:09:33.695Z,140.06
2022-12-26T07:12:42.970Z,138.04
2022-12-26T07:15:48.645Z,143.26
2022-12-26T07:18:56.867Z,142.72
2022-12-26T07:22:02.475Z,144.18
2022-12-26T07:25:11.275Z,146.71
2022-12-26T07:28:19.532Z,144.57
2022-12-26T07:31:29.183Z,140.86
2022-12-26T07:34:34.976Z,150.56
2022-12-26T07:37:41.668Z,162.82
2022-12-26T07:40:48.595Z,157.29
2022-12-26T07:43:58.396Z,157.85
2022-12-26T07:47:04.736Z,144.74
2022-12-26T07:50:12.692Z,141.97
2022-12-26T07:53:18.840Z,143.97
2022-12-26T07:56:25.806Z,136.87
2022-12-26T07:59:34.197Z,145.32
2022-12-26T08:02:43.901Z,146.67
2022-12-26T08:05:54.871Z,147.71
2022-12-26T08:09:01.487Z,140.94
2022-12-26T08:12:10.043Z,145.74
2022-12-26T08:15:19.281Z,150.44
2022-12-26T08:18:27.352Z,138.73
2022-12-26T08:21:34.620Z,141.40
2022-12-26T08:24:44.617Z,148.99
2022-12-26T08:27:52.628Z,155.70
2022-12-26T08:31:01.538Z,164.45
2022-12-26T08:34:10.130Z,172.49
2022-12-26T08:37:18.141Z,161.92
2022-12-26T08:40:41.880Z,152.66
2022-12-26T08:44:25.889Z,149.21
2022-12-26T08:47:26.801Z,245.03
2022-12-26T08:50:40.814Z,175.57
2022-12-26T08:53:52.402Z,166.08
2022-12-26T08:56:58.078Z,159.22
2022-12-26T09:00:04.848Z,166.89
2022-12-26T09:03:13.256Z,166.55
2022-12-26T09:06:19.981Z,160.95
2022-12-26T09:09:25.746Z,151.32
2022-12-26T09:12:32.275Z,148.65
2022-12-26T09:15:37.963Z,152.10
2022-12-26T09:18:48.776Z,156.18
2022-12-26T09:22:17.856Z,173.25
2022-12-26T09:25:29.520Z,143.47
2022-12-26T09:28:35.739Z,147.00
2022-12-26T09:31:43.440Z,152.26
2022-12-26T09:34:52.369Z,152.67
2022-12-26T09:37:58.815Z,177.91
2022-12-26T09:41:39.474Z,167.73
2022-12-26T09:45:01.309Z,176.41
2022-12-26T09:48:19.700Z,167.60
2022-12-26T09:51:34.018Z,168.65
2022-12-26T09:54:59.416Z,189.77
2022-12-26T09:58:22.057Z,185.74
2022-12-26T10:01:43.696Z,199.69
2022-12-26T10:04:52.636Z,188.77
2022-12-26T10:08:17.755Z,167.62
2022-12-26T10:11:44.242Z,156.23
2022-12-26T10:15:06.498Z,159.64
2022-12-26T10:18:40.817Z,159.29
2022-12-26T10:22:02.939Z,160.83
2022-12-26T10:25:28.739Z,153.62
2022-12-26T10:28:48.380Z,157.55
2022-12-26T10:32:04.532Z,153.19
2022-12-26T10:35:30.608Z,157.12
2022-12-26T10:38:44.559Z,163.39
2022-12-26T10:41:59.771Z,166.84
2022-12-26T10:45:20.143Z,175.74
2022-12-26T10:48:32.083Z,171.56
2022-12-26T10:51:40.107Z,162.08
2022-12-26T10:54:50.366Z,164.84
2022-12-26T10:58:27.639Z,167.14
2022-12-26T11:01:39.449Z,172.41
2022-12-26T11:05:18.450Z,195.50
2022-12-26T11:08:43.875Z,178.12
2022-12-26T11:11:55.531Z,166.66
2022-12-26T11:15:20.021Z,145.76
2022-12-26T11:18:40.415Z,150.66
2022-12-26T11:21:46.269Z,148.05
2022-12-26T11:25:23.660Z,137.89
2022-12-26T11:28:35.573Z,136.48
2022-12-26T11:31:57.417Z,142.25
2022-12-26T11:35:03.348Z,144.71
2022-12-26T11:38:38.970Z,138.75
2022-12-26T11:41:50.314Z,147.98
2022-12-26T11:45:04.044Z,144.44
2022-12-26T11:48:27.767Z,138.78
2022-12-26T11:51:43.528Z,133.08
2022-12-26T11:54:53.911Z,148.80
2022-12-26T11:58:06.680Z,147.96
2022-12-26T12:01:20.563Z,154.98
2022-12-26T12:04:34.106Z,149.07
2022-12-26T12:08:26.697Z,159.36
2022-12-26T12:11:52.265Z,158.85
2022-12-26T12:15:14.936Z,146.73
2022-12-26T12:18:41.241Z,161.85
2022-12-26T12:22:16.239Z,148.82
2022-12-26T12:25:43.702Z,146.86
2022-12-26T12:29:26.094Z,140.47
2022-12-26T12:32:58.659Z,159.04
2022-12-26T12:36:14.678Z,162.68
2022-12-26T12:39:48.006Z,159.89
2022-12-26T12:43:13.901Z,149.68
2022-12-26T12:46:40.718Z,148.73
2022-12-26T12:50:11.044Z,140.90
2022-12-26T12:53:41.177Z,131.81
2022-12-26T12:57:05.400Z,131.78
2022-12-26T13:00:21.820Z,134.57
2022-12-26T13:03:40.679Z,141.08
2022-12-26T13:06:57.627Z,128.74
2022-12-26T13:10:16.742Z,127.57
2022-12-26T13:13:38.173Z,128.29
2022-12-26T13:16:53.548Z,127.82
2022-12-26T13:20:08.179Z,133.40
2022-12-26T13:23:41.358Z,139.37
2022-12-26T13:26:58.550Z,132.95
2022-12-26T13:30:20.581Z,147.38
2022-12-26T13:33:28.425Z,155.97
2022-12-26T13:36:47.435Z,151.41
2022-12-26T13:39:56.548Z,161.14
2022-12-26T13:43:32.875Z,137.59
2022-12-26T13:47:00.205Z,132.91
2022-12-26T13:50:55.253Z,132.00
2022-12-26T13:54:16.262Z,144.07
2022-12-26T13:57:40.350Z,149.97
2022-12-26T14:00:53.272Z,146.98
2022-12-26T14:04:39.858Z,140.82
2022-12-26T14:08:01.545Z,129.59
2022-12-26T14:11:39.510Z,136.08
2022-12-26T14:15:10.525Z,140.75
2022-12-26T14:18:38.285Z,141.00
2022-12-26T14:22:03.956Z,147.80
2022-12-26T14:25:28.020Z,159.29
2022-12-26T14:28:59.554Z,148.30
2022-12-26T14:32:31.378Z,164.84
2022-12-26T14:35:50.766Z,192.99
2022-12-26T14:39:15.161Z,144.25
2022-12-26T14:42:39.153Z,157.70
2022-12-26T14:45:51.124Z,237.10
2022-12-26T14:49:02.368Z,145.07
2022-12-26T14:52:43.461Z,142.65
2022-12-26T14:55:56.879Z,139.59
2022-12-26T14:59:33.062Z,141.91
2022-12-26T15:02:47.836Z,156.44
2022-12-26T15:05:54.799Z,138.58
2022-12-26T15:09:31.574Z,139.61
2022-12-26T15:13:35.148Z,138.38
2022-12-26T15:17:07.385Z,136.22
2022-12-26T15:20:53.675Z,137.86
2022-12-26T15:25:21.547Z,133.30
2022-12-26T15:29:10.472Z,136.98
2022-12-26T15:32:38.745Z,135.91
2022-12-26T15:36:02.940Z,129.21
2022-12-26T15:39:30.255Z,122.85
2022-12-26T15:42:59.636Z,124.27
2022-12-26T15:46:21.668Z,127.69
2022-12-26T15:50:00.671Z,132.38
2022-12-26T15:53:29.500Z,139.28
2022-12-26T15:57:05.589Z,138.89
2022-12-26T16:00:23.923Z,146.82
2022-12-26T16:03:52.722Z,191.23
2022-12-26T16:07:20.228Z,146.62
2022-12-26T16:10:37.481Z,173.77
2022-12-26T16:13:58.960Z,148.90
2022-12-26T16:17:25.035Z,159.22
2022-12-26T16:20:48.528Z,151.03
2022-12-26T16:23:59.418Z,152.77
2022-12-26T16:27:12.115Z,153.56
2022-12-26T16:30:28.118Z,154.69
2022-12-26T16:33:42.843Z,166.33
2022-12-26T16:36:53.074Z,203.75
2022-12-26T16:40:27.078Z,175.93
2022-12-26T16:43:36.211Z,173.58
2022-12-26T16:46:42.921Z,161.51
2022-12-26T16:49:48.976Z,161.30
2022-12-26T16:53:14.005Z,172.80
2022-12-26T16:56:36.561Z,168.13
2022-12-26T16:59:58.281Z,165.89
2022-12-26T17:03:10.824Z,162.57
2022-12-26T17:06:27.375Z,166.80
2022-12-26T17:09:44.889Z,276.12
2022-12-26T17:12:57.439Z,408.51
2022-12-26T17:16:13.790Z,384.94
2022-12-26T17:19:24.060Z,304.63
2022-12-26T17:22:36.023Z,213.60
2022-12-26T17:25:48.843Z,184.16
2022-12-26T17:29:01.364Z,171.08
2022-12-26T17:32:11.616Z,186.96
2022-12-26T17:35:26.476Z,241.41
2022-12-26T17:38:34.517Z,209.26
2022-12-26T17:41:46.511Z,235.15
2022-12-26T17:44:56.988Z,185.93
2022-12-26T17:48:02.806Z,180.97
2022-12-26T17:51:17.454Z,169.71
2022-12-26T17:54:23.208Z,167.18
2022-12-26T17:57:32.325Z,175.24
2022-12-26T18:00:40.626Z,181.80
2022-12-26T18:03:47.100Z,180.75
2022-12-26T18:06:52.934Z,182.64
2022-12-26T18:09:59.745Z,174.43
2022-12-26T18:13:06.427Z,171.09
2022-12-26T18:16:25.111Z,170.35
2022-12-26T18:19:31.283Z,170.69
2022-12-26T18:22:38.033Z,175.98
2022-12-26T18:25:43.784Z,172.14
2022-12-26T18:28:54.129Z,176.25
2022-12-26T18:32:02.318Z,182.51
2022-12-26T18:35:10.221Z,184.49
2022-12-26T18:38:18.887Z,183.47
2022-12-26T18:41:25.389Z,185.81
2022-12-26T18:44:30.986Z,185.26
2022-12-26T18:47:40.026Z,196.95
2022-12-26T18:50:47.197Z,191.30
2022-12-26T18:53:54.051Z,190.97
2022-12-26T18:56:59.756Z,192.62
2022-12-26T19:00:11.240Z,196.56
2022-12-26T19:03:19.438Z,194.92
2022-12-26T19:06:29.910Z,198.02
2022-12-26T19:09:35.566Z,197.66
2022-12-26T19:12:42.276Z,205.42
2022-12-26T19:15:50.148Z,213.33
2022-12-26T19:18:59.147Z,225.86
2022-12-26T19:22:04.907Z,247.49
2022-12-26T19:25:12.256Z,229.19
2022-12-26T19:28:17.927Z,231.26
2022-12-26T19:31:27.086Z,220.34
2022-12-26T19:34:36.390Z,208.16
2022-12-26T19:37:43.830Z,201.99
2022-12-26T19:40:49.432Z,211.48
2022-12-26T19:43:59.313Z,214.57
2022-12-26T19:47:12.539Z,226.46
2022-12-26T19:50:22.699Z,267.80
2022-12-26T19:53:28.512Z,295.85
2022-12-26T19:56:39.257Z,286.09
2022-12-26T19:59:44.875Z,230.84
2022-12-26T20:02:52.778Z,198.05
2022-12-26T20:06:03.872Z,200.30
2022-12-26T20:09:14.364Z,199.72
2022-12-26T20:12:20.092Z,191.62
2022-12-26T20:15:26.785Z,183.88
2022-12-26T20:18:32.718Z,202.31
2022-12-26T20:21:44.541Z,206.69
2022-12-26T20:24:51.020Z,211.85
2022-12-26T20:27:57.918Z,225.83
2022-12-26T20:31:11.532Z,224.03
2022-12-26T20:34:22.918Z,241.56
2022-12-26T20:37:32.248Z,225.08
2022-12-26T20:40:39.044Z,206.36
2022-12-26T20:43:45.209Z,182.57
2022-12-26T20:46:51.695Z,182.97
2022-12-26T20:49:57.354Z,202.80
2022-12-26T20:53:08.715Z,227.36
2022-12-26T20:56:16.351Z,232.12
2022-12-26T20:59:23.108Z,265.61
2022-12-26T21:02:28.892Z,282.94
2022-12-26T21:05:35.396Z,216.90
2022-12-26T21:08:47.454Z,213.76
2022-12-26T21:11:53.975Z,245.31
2022-12-26T21:14:59.690Z,249.87
2022-12-26T21:18:07.199Z,231.20
2022-12-26T21:21:16.802Z,231.19
2022-12-26T21:24:29.588Z,234.31
2022-12-26T21:27:35.439Z,220.68
2022-12-26T21:30:47.284Z,211.30
2022-12-26T21:33:58.867Z,213.98
2022-12-26T21:37:18.201Z,191.97
2022-12-26T21:40:27.726Z,182.00
2022-12-26T21:43:34.231Z,178.95
2022-12-26T21:46:39.909Z,182.92
2022-12-26T21:49:46.524Z,184.20
2022-12-26T21:52:52.145Z,176.09
2022-12-26T21:56:08.159Z,188.50
2022-12-26T21:59:29.079Z,175.73
2022-12-26T22:02:51.988Z,176.68
2022-12-26T22:05:58.224Z,182.32
2022-12-26T22:09:06.780Z,182.23
2022-12-26T22:12:27.924Z,170.73
2022-12-26T22:15:47.624Z,175.37
2022-12-26T22:18:53.469Z,164.00
2022-12-26T22:22:00.015Z,164.88
2022-12-26T22:25:05.697Z,162.35
2022-12-26T22:28:20.192Z,161.48
2022-12-26T22:31:32.584Z,158.03
2022-12-26T22:34:43.785Z,162.65
2022-12-26T22:37:50.411Z,169.63
2022-12-26T22:41:02.357Z,167.14
2022-12-26T22:44:11.497Z,169.96
2022-12-26T22:47:18.574Z,166.89
2022-12-26T22:50:26.718Z,161.18
2022-12-26T22:53:34.623Z,167.08
2022-12-26T22:56:40.446Z,162.93
2022-12-26T23:03:16.753Z,156.80
2022-12-26T23:06:27.926Z,155.58
2022-12-26T23:09:34.074Z,155.56
2022-12-26T23:12:47.224Z,153.97
2022-12-26T23:16:12.956Z,156.50
2022-12-26T23:19:41.252Z,159.77
2022-12-26T23:22:47.642Z,164.25
2022-12-26T23:25:54.277Z,167.47
2022-12-26T23:29:12.301Z,171.61
2022-12-26T23:32:21.355Z,169.09
2022-12-26T23:35:28.896Z,160.95
2022-12-26T23:38:38.289Z,161.16
2022-12-26T23:41:43.991Z,154.55
2022-12-26T23:44:50.473Z,152.67
2022-12-26T23:47:58.885Z,152.98
2022-12-26T23:51:06.824Z,157.53
2022-12-26T23:54:15.359Z,157.90
2022-12-26T23:57:21.807Z,144.19
